Time;durP1;ratioP1;P1;durP2;ratioP2;P2;SDS_P1;SDS_P2;PMS_P1;PMS_P2;Temp;Humidity;BMP_temperature;BMP_pressure;BME280_temperature;BME280_humidity;BME280_pressure;Samples;Min_cycle;Max_cycle;Signal;HPM_P1;HPM_P2
2022/03/08 00:03:01;;;;;;;31.40;13.40;;;;;;;-1.03;71.47;100812.12;129620;1274;107434;-73
2022/03/08 00:06:07;;;;;;;30.50;13.40;;;;;;;-1.07;71.53;100811.06;129745;1274;108712;-71
2022/03/08 00:09:12;;;;;;;34.70;14.10;;;;;;;-1.08;71.44;100814.05;129745;1274;108820;-71
2022/03/08 00:12:18;;;;;;;36.20;14.40;;;;;;;-1.02;71.63;100811.17;129720;1274;108810;-72
2022/03/08 00:15:26;;;;;;;27.00;11.80;;;;;;;-0.93;71.17;100812.35;129701;1274;108883;-70
2022/03/08 00:18:32;;;;;;;30.60;14.80;;;;;;;-0.83;72.10;100814.40;129600;1274;107296;-70
2022/03/08 00:21:37;;;;;;;26.50;14.30;;;;;;;-0.76;71.34;100816.70;129629;1274;108893;-70
2022/03/08 00:24:43;;;;;;;25.90;13.00;;;;;;;-0.67;71.92;100818.77;129716;1274;108523;-71
2022/03/08 00:27:48;;;;;;;20.90;10.90;;;;;;;-0.68;71.68;100823.35;129628;1274;108714;-70
2022/03/08 00:30:55;;;;;;;20.50;11.70;;;;;;;-0.74;71.87;100832.71;129593;1274;109530;-70
2022/03/08 00:34:01;;;;;;;24.00;12.80;;;;;;;-0.80;71.62;100829.80;129498;1274;109798;-70
2022/03/08 00:37:08;;;;;;;26.20;12.40;;;;;;;-0.84;72.00;100834.31;129610;1274;108738;-71
2022/03/08 00:40:15;;;;;;;23.60;11.40;;;;;;;-0.92;72.49;100838.73;129668;1274;108977;-70
2022/03/08 00:43:20;;;;;;;22.50;11.10;;;;;;;-1.01;72.64;100834.73;129606;1274;108758;-70
2022/03/08 00:46:27;;;;;;;20.60;10.20;;;;;;;-1.05;72.39;100829.83;129601;1274;107339;-70
2022/03/08 00:49:33;;;;;;;19.60;9.30;;;;;;;-1.06;72.37;100820.42;129597;1274;108890;-71
2022/03/08 00:52:39;;;;;;;30.30;13.80;;;;;;;-1.04;72.55;100813.38;129585;1274;109014;-69
2022/03/08 00:55:44;;;;;;;27.00;13.50;;;;;;;-1.02;72.17;100807.48;129649;1274;108659;-69
2022/03/08 00:58:50;;;;;;;37.30;18.40;;;;;;;-0.96;72.05;100805.70;129654;1274;108686;-71
2022/03/08 01:01:55;;;;;;;28.10;12.90;;;;;;;-0.95;71.77;100806.70;129676;1274;108958;-71
2022/03/08 01:05:01;;;;;;;24.80;13.00;;;;;;;-0.94;71.67;100807.50;129587;1274;107386;-71
2022/03/08 01:08:07;;;;;;;19.40;10.90;;;;;;;-0.95;71.46;100808.25;129701;1274;108818;-72
2022/03/08 01:11:12;;;;;;;21.10;11.40;;;;;;;-0.93;71.77;100813.06;129508;1274;108699;-72
2022/03/08 01:14:18;;;;;;;21.30;11.50;;;;;;;-0.97;71.64;100818.12;129507;1274;108770;-71
2022/03/08 01:17:23;;;;;;;20.20;10.60;;;;;;;-1.02;71.67;100823.23;129736;1274;109069;-71
2022/03/08 01:20:29;;;;;;;20.80;11.70;;;;;;;-1.08;72.07;100828.71;129595;1274;108969;-71
2022/03/08 01:23:35;;;;;;;22.30;11.00;;;;;;;-1.18;72.18;100830.88;129731;1274;108722;-70
2022/03/08 01:26:40;;;;;;;39.00;16.70;;;;;;;-1.25;72.39;100823.50;129486;1274;106627;-70
2022/03/08 01:29:46;;;;;;;36.70;13.00;;;;;;;-1.25;72.81;100821.23;129633;1274;108867;-71
2022/03/08 01:32:51;;;;;;;283.00;60.90;;;;;;;-1.24;72.59;100822.77;129705;1274;108922;-71
2022/03/08 01:35:57;;;;;;;414.70;85.40;;;;;;;-1.20;72.21;100825.21;129720;1274;108688;-70
2022/03/08 01:39:03;;;;;;;90.60;24.60;;;;;;;-1.10;72.11;100823.74;129667;1274;109777;-71
2022/03/08 01:42:15;;;;;;;34.30;13.20;;;;;;;-1.08;71.71;100821.59;129742;1274;108698;-71
2022/03/08 01:45:23;;;;;;;165.10;40.90;;;;;;;-1.11;72.43;100817.34;129646;1274;108797;-71
2022/03/08 01:48:30;;;;;;;45.80;15.90;;;;;;;-1.14;72.04;100812.41;129715;1274;108779;-71
2022/03/08 01:51:39;;;;;;;29.20;12.70;;;;;;;-1.19;72.12;100806.48;129373;1273;108700;-71
2022/03/08 01:54:45;;;;;;;41.90;15.60;;;;;;;-1.26;71.71;100802.91;129678;1274;108755;-71
2022/03/08 01:57:52;;;;;;;141.10;48.00;;;;;;;-1.28;72.12;100803.01;129798;1274;109001;-72
2022/03/08 02:00:58;;;;;;;366.20;123.50;;;;;;;-1.29;71.83;100800.45;129734;1274;107710;-71
2022/03/08 02:04:03;;;;;;;169.40;63.70;;;;;;;-1.30;71.47;100800.84;129700;1274;108943;-70
2022/03/08 02:07:10;;;;;;;152.60;68.70;;;;;;;-1.35;71.55;100800.88;129295;1274;428747;-70
2022/03/08 02:10:15;;;;;;;56.10;26.40;;;;;;;-1.39;71.83;100803.66;129608;1274;108956;-72
2022/03/08 02:13:21;;;;;;;61.10;30.30;;;;;;;-1.42;71.61;100804.28;129744;1274;109220;-70
2022/03/08 02:16:26;;;;;;;75.60;37.60;;;;;;;-1.40;71.62;100806.46;129728;1274;108417;-71
2022/03/08 02:19:32;;;;;;;71.60;38.80;;;;;;;-1.33;71.63;100809.52;129759;1274;108731;-71
2022/03/08 02:22:37;;;;;;;39.30;21.30;;;;;;;-1.26;71.48;100817.25;129457;1274;109664;-72
2022/03/08 02:25:43;;;;;;;26.90;16.00;;;;;;;-1.23;71.23;100820.10;129561;1274;108405;-72
2022/03/08 02:28:49;;;;;;;20.60;11.30;;;;;;;-1.22;71.41;100823.02;129700;1274;108658;-72
2022/03/08 02:31:55;;;;;;;18.60;8.20;;;;;;;-1.23;71.72;100828.30;129702;1274;108661;-71
2022/03/08 02:35:08;;;;;;;16.80;8.40;;;;;;;-1.33;71.78;100827.31;129757;1274;108826;-70
2022/03/08 02:38:14;;;;;;;19.30;9.90;;;;;;;-1.39;72.10;100823.56;129777;1274;108837;-72
2022/03/08 02:41:20;;;;;;;17.70;8.20;;;;;;;-1.46;71.97;100823.84;129761;1274;108911;-71
2022/03/08 02:44:25;;;;;;;20.40;9.50;;;;;;;-1.52;72.06;100831.59;129730;1274;109056;-72
2022/03/08 02:47:31;;;;;;;23.80;11.40;;;;;;;-1.63;72.59;100834.10;129754;1274;108853;-72
2022/03/08 02:50:37;;;;;;;17.30;9.20;;;;;;;-1.72;72.70;100832.52;129784;1274;106835;-71
2022/03/08 02:53:42;;;;;;;16.90;7.80;;;;;;;-1.76;72.20;100837.58;129486;1276;108847;-71
2022/03/08 02:56:48;;;;;;;15.50;8.10;;;;;;;-1.72;72.68;100838.66;129546;1274;108734;-70
2022/03/08 02:59:53;;;;;;;15.00;7.40;;;;;;;-1.69;72.46;100839.08;129421;1276;109002;-68
2022/03/08 03:02:59;;;;;;;14.60;6.90;;;;;;;-1.65;72.49;100840.80;129726;1274;107755;-70
2022/03/08 03:06:05;;;;;;;14.90;7.50;;;;;;;-1.63;72.46;100840.01;129677;1274;108747;-71
2022/03/08 03:09:10;;;;;;;15.70;7.30;;;;;;;-1.59;72.48;100839.19;129550;1275;108769;-72
2022/03/08 03:12:15;;;;;;;15.70;7.30;;;;;;;-1.61;72.63;100838.90;129691;1274;108702;-71
2022/03/08 03:15:22;;;;;;;17.30;7.60;;;;;;;-1.63;72.48;100845.62;129688;1274;109063;-71
2022/03/08 03:18:28;;;;;;;16.80;8.20;;;;;;;-1.69;72.77;100845.85;129690;1274;108804;-72
2022/03/08 03:21:34;;;;;;;14.50;7.50;;;;;;;-1.76;72.88;100849.25;129690;1274;108914;-72
2022/03/08 03:24:40;;;;;;;15.50;7.00;;;;;;;-1.82;72.82;100845.83;129660;1274;108586;-71
2022/03/08 03:27:45;;;;;;;15.70;7.90;;;;;;;-1.84;72.65;100850.11;129568;1274;108996;-72
2022/03/08 03:30:51;;;;;;;23.80;10.10;;;;;;;-1.86;72.34;100848.27;129696;1274;108887;-72
2022/03/08 03:33:56;;;;;;;16.70;8.40;;;;;;;-1.86;72.40;100848.45;129691;1274;108908;-71
2022/03/08 03:37:02;;;;;;;18.40;8.10;;;;;;;-1.87;72.44;100854.59;129627;1274;107415;-72
2022/03/08 03:40:09;;;;;;;14.30;6.30;;;;;;;-1.84;72.29;100858.98;129762;1274;108819;-71
2022/03/08 03:43:15;;;;;;;15.80;6.30;;;;;;;-1.77;72.03;100857.48;129735;1274;108827;-71
2022/03/08 03:46:20;;;;;;;14.10;6.50;;;;;;;-1.71;72.01;100858.16;129598;1274;107687;-73
2022/03/08 03:49:26;;;;;;;15.10;7.30;;;;;;;-1.69;71.76;100863.46;129719;1274;107572;-71
2022/03/08 03:52:31;;;;;;;16.70;7.30;;;;;;;-1.68;71.50;100863.60;129646;1274;107751;-72
2022/03/08 03:55:37;;;;;;;15.10;7.00;;;;;;;-1.71;71.22;100869.13;129774;1274;107392;-74
2022/03/08 03:58:42;;;;;;;19.40;6.60;;;;;;;-1.77;71.46;100874.95;129702;1274;108889;-72
2022/03/08 04:01:48;;;;;;;13.80;6.70;;;;;;;-1.84;71.48;100875.52;129748;1274;108867;-75
2022/03/08 04:04:53;;;;;;;19.30;8.60;;;;;;;-1.86;71.43;100876.32;129831;1274;108600;-74
2022/03/08 04:07:59;;;;;;;52.40;19.80;;;;;;;-1.91;71.50;100878.95;129802;1274;108881;-74
2022/03/08 04:11:04;;;;;;;35.30;12.40;;;;;;;-1.94;71.47;100879.96;130075;1274;108861;-74
2022/03/08 04:14:10;;;;;;;18.10;8.80;;;;;;;-1.98;71.37;100879.21;129762;1274;108703;-73
2022/03/08 04:17:15;;;;;;;12.90;6.70;;;;;;;-2.02;70.91;100879.17;129741;1274;108800;-73
2022/03/08 04:20:21;;;;;;;17.70;7.50;;;;;;;-2.07;71.21;100876.59;129743;1274;108915;-73
2022/03/08 04:23:26;;;;;;;37.90;18.40;;;;;;;-2.11;71.26;100874.48;129762;1274;108675;-73
2022/03/08 04:26:31;;;;;;;40.20;15.40;;;;;;;-2.13;71.26;100878.42;129782;1274;108837;-74
2022/03/08 04:29:37;;;;;;;80.10;33.20;;;;;;;-2.16;71.57;100879.52;129526;1274;106930;-74
2022/03/08 04:32:42;;;;;;;31.50;12.80;;;;;;;-2.20;71.81;100883.00;129661;1274;108985;-73
2022/03/08 04:35:48;;;;;;;22.50;9.50;;;;;;;-2.24;71.79;100882.47;129649;1274;108806;-73
2022/03/08 04:38:53;;;;;;;17.20;7.90;;;;;;;-2.27;71.75;100887.63;129690;1273;108710;-73
2022/03/08 04:41:59;;;;;;;316.20;75.80;;;;;;;-2.23;72.20;100893.23;129731;1274;107807;-74
2022/03/08 04:45:06;;;;;;;381.20;99.10;;;;;;;-2.20;71.95;100899.75;129688;1274;108818;-74
2022/03/08 04:48:12;;;;;;;119.80;45.20;;;;;;;-2.14;71.73;100898.30;129740;1274;108658;-74
2022/03/08 04:51:18;;;;;;;40.10;17.40;;;;;;;-2.12;71.49;100893.70;129676;1274;108893;-74
2022/03/08 04:54:23;;;;;;;21.80;9.50;;;;;;;-2.14;71.47;100891.15;129693;1274;108964;-74
2022/03/08 04:57:28;;;;;;;14.10;7.40;;;;;;;-2.17;71.97;100896.16;129718;1274;108867;-73
2022/03/08 05:00:34;;;;;;;18.40;9.00;;;;;;;-2.21;71.80;100894.20;129665;1275;108816;-75
2022/03/08 05:03:40;;;;;;;20.10;9.70;;;;;;;-2.23;71.68;100886.05;129767;1274;107538;-74
2022/03/08 05:06:47;;;;;;;14.80;8.30;;;;;;;-2.22;71.73;100886.55;129816;1274;106690;-74
2022/03/08 05:09:52;;;;;;;15.70;7.50;;;;;;;-2.23;71.51;100883.11;129720;1274;108739;-73
2022/03/08 05:12:58;;;;;;;13.30;6.50;;;;;;;-2.25;71.65;100883.86;129702;1275;108824;-75
2022/03/08 05:16:04;;;;;;;14.80;6.80;;;;;;;-2.27;71.90;100888.85;129732;1274;107705;-73
2022/03/08 05:19:10;;;;;;;11.00;6.00;;;;;;;-2.31;72.03;100894.03;129626;1276;108788;-74
2022/03/08 05:22:15;;;;;;;14.60;6.70;;;;;;;-2.31;72.10;100890.21;129690;1274;107701;-74
2022/03/08 05:25:21;;;;;;;13.70;7.70;;;;;;;-2.32;72.10;100890.59;129615;1274;110251;-73
2022/03/08 05:28:26;;;;;;;108.50;26.20;;;;;;;-2.34;72.02;100889.41;129657;1274;108705;-76
2022/03/08 05:31:32;;;;;;;64.40;21.80;;;;;;;-2.28;72.11;100897.92;129675;1274;108927;-75
2022/03/08 05:34:37;;;;;;;17.60;9.10;;;;;;;-2.21;72.31;100901.15;129534;1276;108738;-74
2022/03/08 05:37:43;;;;;;;16.90;9.20;;;;;;;-2.10;72.37;100904.42;129533;1276;108760;-74
2022/03/08 05:40:48;;;;;;;28.10;14.50;;;;;;;-2.02;71.84;100926.10;129549;1276;107393;-73
2022/03/08 05:43:54;;;;;;;16.80;8.80;;;;;;;-1.95;71.83;100936.31;129524;1276;109522;-73
2022/03/08 05:46:59;;;;;;;14.80;8.00;;;;;;;-1.92;72.09;100932.89;129577;1276;108686;-73
2022/03/08 05:50:07;;;;;;;19.00;8.80;;;;;;;-1.88;72.23;100925.95;129536;1276;108756;-74
2022/03/08 05:53:12;;;;;;;19.60;9.80;;;;;;;-1.84;72.30;100926.13;129551;1276;109015;-73
2022/03/08 05:56:18;;;;;;;19.80;10.10;;;;;;;-1.81;72.36;100928.80;129640;1275;107625;-73
2022/03/08 05:59:23;;;;;;;174.20;59.70;;;;;;;-1.79;72.44;100924.89;129640;1276;107765;-72
2022/03/08 06:02:29;;;;;;;457.00;159.60;;;;;;;-1.71;72.73;100921.65;129519;1275;108844;-74
2022/03/08 06:05:35;;;;;;;220.40;64.70;;;;;;;-1.65;72.66;100915.63;129501;1276;108968;-73
2022/03/08 06:08:41;;;;;;;552.60;196.50;;;;;;;-1.61;73.10;100918.77;129515;1276;108714;-72
2022/03/08 06:11:46;;;;;;;209.20;67.50;;;;;;;-1.56;73.00;100927.33;129514;1276;108895;-73
2022/03/08 06:14:52;;;;;;;26.40;11.50;;;;;;;-1.48;73.73;100932.09;129620;1275;108893;-73
2022/03/08 06:17:57;;;;;;;286.20;94.60;;;;;;;-1.37;73.59;100929.41;129760;1274;108884;-73
2022/03/08 06:21:03;;;;;;;73.80;26.20;;;;;;;-1.22;73.86;100929.48;129743;1276;108720;-73
2022/03/08 06:24:11;;;;;;;144.80;37.50;;;;;;;-1.11;73.40;100927.99;129746;1276;108740;-73
2022/03/08 06:27:16;;;;;;;42.40;15.20;;;;;;;-1.00;73.86;100932.30;129754;1274;109005;-72
2022/03/08 06:30:22;;;;;;;82.10;23.70;;;;;;;-0.98;73.73;100939.71;129640;1274;108697;-72
2022/03/08 06:33:27;;;;;;;67.70;19.50;;;;;;;-0.93;73.74;100939.50;129637;1274;108700;-72
2022/03/08 06:36:34;;;;;;;33.20;11.30;;;;;;;-0.87;74.01;100948.01;129670;1274;108987;-74
2022/03/08 06:39:39;;;;;;;24.70;9.70;;;;;;;-0.84;74.52;100957.66;129671;1274;107451;-75
2022/03/08 06:42:45;;;;;;;16.60;7.80;;;;;;;-0.85;75.56;100963.80;129662;1274;108705;-73
2022/03/08 06:45:50;;;;;;;23.40;10.40;;;;;;;-0.83;75.08;100961.29;129626;1274;108665;-73
2022/03/08 06:48:55;;;;;;;53.10;20.30;;;;;;;-0.73;74.67;100959.83;129642;1274;108785;-72
2022/03/08 06:52:01;;;;;;;47.90;20.00;;;;;;;-0.62;75.36;100959.02;129728;1274;108221;-73
2022/03/08 06:55:10;;;;;;;15.20;8.30;;;;;;;-0.57;75.46;100959.52;129653;1274;108993;-72
2022/03/08 06:58:15;;;;;;;16.60;8.60;;;;;;;-0.50;75.12;100956.27;129687;1274;109008;-73
2022/03/08 07:01:21;;;;;;;27.60;14.10;;;;;;;-0.39;75.17;100946.53;129656;1274;109097;-74
2022/03/08 07:04:26;;;;;;;14.80;8.30;;;;;;;-0.32;75.04;100938.87;129684;1274;107850;-73
2022/03/08 07:07:32;;;;;;;15.30;9.00;;;;;;;-0.28;75.36;100928.38;129653;1274;108518;-74
2022/03/08 07:10:38;;;;;;;19.00;9.40;;;;;;;-0.24;74.97;100930.81;129693;1274;107273;-74
2022/03/08 07:13:43;;;;;;;17.90;8.90;;;;;;;-0.18;76.02;100935.98;129666;1274;108875;-73
2022/03/08 07:16:50;;;;;;;21.50;10.00;;;;;;;-0.22;76.85;100947.37;129656;1274;107693;-75
2022/03/08 07:19:55;;;;;;;14.70;9.10;;;;;;;-0.21;76.13;100948.20;129685;1275;108787;-73
2022/03/08 07:23:01;;;;;;;27.40;14.00;;;;;;;-0.13;76.30;100950.29;129710;1274;107152;-73
2022/03/08 07:26:06;;;;;;;30.60;16.90;;;;;;;-0.09;76.35;100954.84;129681;1274;107499;-72
2022/03/08 07:29:12;;;;;;;34.10;22.10;;;;;;;0.00;76.17;100956.50;129554;1274;109069;-73
2022/03/08 07:32:17;;;;;;;23.10;14.20;;;;;;;0.01;76.49;100963.66;129681;1274;108045;-72
2022/03/08 07:35:24;;;;;;;27.50;16.10;;;;;;;-0.02;76.70;100969.20;129667;1275;109089;-72
2022/03/08 07:38:29;;;;;;;22.70;13.50;;;;;;;-0.05;77.19;100971.09;129693;1275;108956;-74
2022/03/08 07:41:35;;;;;;;25.30;14.90;;;;;;;0.02;76.16;100978.30;129707;1274;108647;-73
2022/03/08 07:44:40;;;;;;;28.20;17.40;;;;;;;0.22;76.35;100980.23;129696;1275;108798;-73
2022/03/08 07:47:46;;;;;;;31.70;18.30;;;;;;;0.27;76.07;100975.80;129726;1275;108847;-73
2022/03/08 07:50:51;;;;;;;42.80;24.30;;;;;;;0.22;75.99;100980.93;129680;1275;108919;-73
2022/03/08 07:53:56;;;;;;;34.00;20.60;;;;;;;0.24;76.28;100971.74;129559;1275;108970;-73
2022/03/08 07:57:02;;;;;;;37.60;22.60;;;;;;;0.32;76.06;100974.33;129642;1274;108745;-73
2022/03/08 08:00:09;;;;;;;56.40;28.50;;;;;;;0.43;76.08;100982.78;129667;1274;108810;-72
2022/03/08 08:03:15;;;;;;;36.60;22.20;;;;;;;0.48;75.88;100990.27;129716;1274;108712;-73
2022/03/08 08:06:20;;;;;;;36.30;22.90;;;;;;;0.55;75.42;100988.87;129545;1274;107772;-73
2022/03/08 08:09:26;;;;;;;36.50;22.20;;;;;;;0.76;75.32;101000.34;129661;1274;108856;-72
2022/03/08 08:12:31;;;;;;;33.60;21.60;;;;;;;0.72;75.13;101003.48;129675;1274;108683;-72
2022/03/08 08:15:39;;;;;;;35.70;22.90;;;;;;;0.67;75.03;101006.33;129701;1274;108841;-73
2022/03/08 08:18:44;;;;;;;29.40;18.70;;;;;;;0.62;75.66;101004.32;129745;1274;108780;-73
2022/03/08 08:21:49;;;;;;;33.00;18.30;;;;;;;0.51;75.73;101000.61;129643;1276;108895;-74
2022/03/08 08:24:55;;;;;;;25.20;16.50;;;;;;;0.51;75.68;101000.27;129705;1274;108963;-73
2022/03/08 08:28:00;;;;;;;23.00;14.70;;;;;;;0.58;75.74;100997.15;129733;1275;108803;-72
2022/03/08 08:31:06;;;;;;;24.60;14.40;;;;;;;0.61;75.87;101001.36;129760;1274;108772;-73
2022/03/08 08:34:11;;;;;;;22.20;13.60;;;;;;;0.55;76.05;101007.92;129684;1274;107689;-73
2022/03/08 08:37:16;;;;;;;22.80;14.70;;;;;;;0.62;75.54;101009.05;129720;1274;108821;-73
2022/03/08 08:40:22;;;;;;;19.80;11.90;;;;;;;0.66;75.33;101012.34;129634;1274;108694;-74
2022/03/08 08:43:27;;;;;;;20.30;12.40;;;;;;;0.56;75.36;101008.62;129669;1276;108761;-72
2022/03/08 08:46:33;;;;;;;18.20;11.30;;;;;;;0.41;75.44;100999.16;129713;1274;108677;-73
2022/03/08 08:49:38;;;;;;;22.50;12.80;;;;;;;0.41;75.08;101001.73;129742;1274;108808;-73
2022/03/08 08:52:44;;;;;;;21.30;12.80;;;;;;;0.57;75.15;101007.36;129727;1274;108636;-73
2022/03/08 08:55:49;;;;;;;21.20;13.00;;;;;;;0.67;75.02;101004.79;129734;1275;109158;-73
2022/03/08 08:58:55;;;;;;;17.00;10.00;;;;;;;0.65;74.82;101004.48;129489;1276;108748;-73
2022/03/08 09:02:01;;;;;;;17.70;10.60;;;;;;;0.74;74.79;101002.52;129741;1274;108882;-72
2022/03/08 09:05:07;;;;;;;18.80;10.70;;;;;;;0.93;74.58;100994.79;129681;1274;108640;-73
2022/03/08 09:08:14;;;;;;;15.00;9.20;;;;;;;0.94;74.18;100987.21;129703;1274;108792;-73
2022/03/08 09:11:19;;;;;;;16.20;9.50;;;;;;;0.93;74.08;100989.39;129754;1274;108793;-72
2022/03/08 09:14:25;;;;;;;18.20;10.30;;;;;;;0.79;74.57;100988.30;129789;1274;108981;-73
2022/03/08 09:17:31;;;;;;;16.10;9.80;;;;;;;0.72;74.73;100977.23;129650;1274;108613;-73
2022/03/08 09:20:38;;;;;;;19.70;11.30;;;;;;;0.79;74.57;100973.75;129738;1274;108714;-73
2022/03/08 09:23:44;;;;;;;17.70;10.70;;;;;;;0.80;74.36;100970.74;129762;1274;106987;-73
2022/03/08 09:26:49;;;;;;;20.00;11.20;;;;;;;0.67;74.61;100970.96;129599;1275;109063;-73
2022/03/08 09:29:55;;;;;;;25.10;11.20;;;;;;;0.68;74.43;100972.50;129737;1274;107792;-73
2022/03/08 09:33:01;;;;;;;19.90;10.60;;;;;;;0.80;74.64;100967.77;129693;1274;108901;-74
2022/03/08 09:36:07;;;;;;;22.50;12.80;;;;;;;0.99;74.58;100961.77;129688;1274;109381;-73
2022/03/08 09:39:12;;;;;;;18.60;11.60;;;;;;;1.03;74.17;100953.86;129665;1274;108991;-73
2022/03/08 09:42:18;;;;;;;18.30;11.10;;;;;;;1.14;74.02;100958.58;129659;1274;107489;-72
2022/03/08 09:45:23;;;;;;;28.90;14.50;;;;;;;1.22;73.85;100960.83;129697;1274;108751;-73
2022/03/08 09:48:29;;;;;;;34.50;18.80;;;;;;;1.43;73.86;100961.18;129728;1274;108896;-73
2022/03/08 09:51:36;;;;;;;24.20;14.20;;;;;;;1.60;73.69;100958.20;129757;1274;109075;-73
2022/03/08 09:54:43;;;;;;;21.30;13.60;;;;;;;1.63;72.99;100958.22;129749;1275;108695;-73
2022/03/08 09:57:51;;;;;;;21.50;12.40;;;;;;;1.59;73.20;100957.20;129680;1274;108915;-73
2022/03/08 10:00:59;;;;;;;17.20;10.40;;;;;;;1.62;73.32;100952.86;129654;1275;108846;-73
2022/03/08 10:04:07;;;;;;;20.00;10.30;;;;;;;1.77;72.78;100940.99;129742;1275;108817;-74
2022/03/08 10:07:14;;;;;;;14.80;9.00;;;;;;;1.87;72.45;100943.31;129715;1274;108860;-73
2022/03/08 10:10:19;;;;;;;15.40;9.90;;;;;;;1.84;72.19;100934.53;129772;1274;109044;-74
2022/03/08 10:13:26;;;;;;;26.20;10.40;;;;;;;1.88;72.37;100928.33;129729;1275;108937;-73
2022/03/08 10:16:41;;;;;;;14.00;9.20;;;;;;;1.95;71.93;100928.48;129794;1275;108693;-74
2022/03/08 10:19:48;;;;;;;13.70;8.70;;;;;;;1.96;71.81;100922.84;129781;1275;108853;-73
2022/03/08 10:22:53;;;;;;;11.80;7.80;;;;;;;2.14;71.74;100918.02;129714;1274;109105;-73
2022/03/08 10:26:06;;;;;;;13.10;7.80;;;;;;;2.27;71.37;100916.45;129691;1275;108882;-73
2022/03/08 10:29:11;;;;;;;12.40;9.30;;;;;;;2.29;71.04;100916.35;129764;1274;109637;-73
2022/03/08 10:32:21;;;;;;;14.00;9.30;;;;;;;2.32;70.88;100915.83;129686;1275;108645;-73
2022/03/08 10:35:29;;;;;;;10.30;7.20;;;;;;;2.44;71.44;100915.52;129721;1274;109600;-73
2022/03/08 10:38:34;;;;;;;12.00;7.20;;;;;;;2.60;71.47;100906.52;129742;1274;109129;-73
2022/03/08 10:41:49;;;;;;;14.00;8.50;;;;;;;2.78;70.38;100903.23;129729;1275;108777;-73
2022/03/08 10:45:04;;;;;;;14.60;9.90;;;;;;;2.91;71.07;100892.49;129740;1275;106984;-73
2022/03/08 10:48:10;;;;;;;14.70;9.30;;;;;;;3.16;69.61;100888.40;129644;1276;108497;-74
2022/03/08 10:51:17;;;;;;;10.90;8.10;;;;;;;3.24;69.41;100884.46;129713;1274;108866;-73
2022/03/08 10:54:25;;;;;;;12.10;8.20;;;;;;;3.31;68.77;100872.23;129684;1275;108846;-73
2022/03/08 10:57:36;;;;;;;10.70;7.80;;;;;;;3.38;68.74;100875.88;129763;1274;108988;-73
2022/03/08 11:00:43;;;;;;;10.00;7.20;;;;;;;3.25;67.66;100878.04;129749;1275;107448;-73
2022/03/08 11:04:00;;;;;;;11.60;7.40;;;;;;;3.19;68.37;100882.24;129706;1275;108966;-73
2022/03/08 11:07:06;;;;;;;10.80;8.30;;;;;;;3.16;68.97;100878.74;129688;1274;107727;-73
2022/03/08 11:10:15;;;;;;;12.40;8.50;;;;;;;3.21;68.98;100878.83;129707;1274;108680;-73
2022/03/08 11:13:20;;;;;;;10.50;7.60;;;;;;;3.23;68.26;100878.85;129747;1274;109178;-72
2022/03/08 11:16:28;;;;;;;10.80;7.70;;;;;;;3.33;68.70;100885.14;129735;1275;108810;-71
2022/03/08 11:19:34;;;;;;;11.40;7.90;;;;;;;3.40;68.46;100881.55;129768;1274;107491;-73
2022/03/08 11:22:40;;;;;;;9.90;7.50;;;;;;;3.47;68.58;100873.92;129691;1275;109127;-72
2022/03/08 11:25:47;;;;;;;11.00;8.00;;;;;;;3.46;68.91;100875.75;129678;1275;108813;-72
2022/03/08 11:28:54;;;;;;;11.50;7.20;;;;;;;3.59;68.91;100873.02;129719;1274;106769;-72
2022/03/08 11:32:02;;;;;;;14.20;9.30;;;;;;;3.82;67.41;100868.48;129721;1275;108810;-71
2022/03/08 11:35:16;;;;;;;9.50;6.70;;;;;;;3.87;66.48;100872.37;129716;1276;107760;-73
2022/03/08 11:38:21;;;;;;;9.50;6.50;;;;;;;3.81;66.13;100866.26;129700;1275;107700;-73
2022/03/08 11:41:27;;;;;;;10.70;6.80;;;;;;;3.85;66.63;100868.80;129695;1274;108758;-72
2022/03/08 11:44:35;;;;;;;10.40;6.80;;;;;;;3.91;66.73;100868.11;129514;1276;107138;-73
2022/03/08 11:47:43;;;;;;;8.70;6.20;;;;;;;3.93;66.40;100870.59;129761;1274;108790;-72
2022/03/08 11:50:49;;;;;;;10.40;8.00;;;;;;;3.98;65.95;100869.25;129737;1274;107005;-72
2022/03/08 11:54:06;;;;;;;10.30;6.30;;;;;;;4.13;67.15;100873.76;129626;1274;107494;-72
2022/03/08 11:57:11;;;;;;;28.50;17.70;;;;;;;4.47;66.44;100871.75;129773;1274;108637;-71
2022/03/08 12:00:21;;;;;;;11.30;6.90;;;;;;;4.59;66.03;100867.16;129717;1274;108891;-71
2022/03/08 12:03:40;;;;;;;10.30;6.80;;;;;;;4.57;65.19;100861.14;129691;1274;109216;-73
2022/03/08 12:06:53;;;;;;;7.90;5.90;;;;;;;4.62;65.54;100860.06;129715;1274;107842;-73
2022/03/08 12:10:26;;;;;;;8.50;5.50;;;;;;;4.69;66.14;100862.91;129745;1275;108503;-72
2022/03/08 12:13:34;;;;;;;7.60;5.70;;;;;;;4.83;64.70;100862.23;129720;1274;109048;-72
2022/03/08 12:16:40;;;;;;;8.40;6.20;;;;;;;4.92;64.13;100862.90;129747;1274;108746;-71
2022/03/08 12:19:48;;;;;;;8.20;6.20;;;;;;;4.92;63.42;100860.36;129741;1274;107267;-73
2022/03/08 12:23:10;;;;;;;10.00;6.80;;;;;;;4.95;63.49;100864.98;129714;1274;108785;-72
2022/03/08 12:26:29;;;;;;;30.60;14.80;;;;;;;4.95;62.94;100862.16;129706;1274;108773;-72
2022/03/08 12:29:36;;;;;;;20.00;9.40;;;;;;;5.00;64.14;100859.13;129689;1274;109808;-73
2022/03/08 12:32:44;;;;;;;11.00;6.50;;;;;;;5.06;62.55;100859.96;129731;1274;107507;-73
2022/03/08 12:35:57;;;;;;;18.30;9.60;;;;;;;4.96;62.02;100858.56;129741;1274;108830;-73
2022/03/08 12:39:04;;;;;;;12.20;6.30;;;;;;;5.01;63.16;100856.11;129750;1274;108692;-73
2022/03/08 12:42:19;;;;;;;8.90;6.30;;;;;;;5.13;62.43;100849.83;129775;1275;108692;-73
2022/03/08 12:45:27;;;;;;;9.70;5.70;;;;;;;5.14;61.55;100847.77;129796;1274;107144;-73
2022/03/08 12:48:32;;;;;;;9.40;5.30;;;;;;;5.05;60.53;100850.33;129787;1275;108804;-71
2022/03/08 12:51:39;;;;;;;11.90;5.00;;;;;;;4.94;59.09;100846.71;129768;1274;108786;-73
2022/03/08 12:54:46;;;;;;;7.20;4.80;;;;;;;4.87;61.28;100857.91;129677;1274;108806;-73
2022/03/08 12:57:53;;;;;;;7.30;5.30;;;;;;;4.90;61.06;100867.02;129771;1274;108761;-72
2022/03/08 13:01:00;;;;;;;7.70;4.90;;;;;;;4.90;61.51;100862.09;129744;1274;108717;-73
2022/03/08 13:04:06;;;;;;;9.40;5.10;;;;;;;4.93;62.03;100862.23;129742;1275;108719;-71
2022/03/08 13:07:13;;;;;;;13.20;6.30;;;;;;;4.96;62.11;100854.66;129701;1274;108934;-73
2022/03/08 13:10:20;;;;;;;11.10;7.10;;;;;;;4.98;61.95;100851.17;129741;1274;109372;-72
2022/03/08 13:13:26;;;;;;;6.90;4.60;;;;;;;4.97;61.03;100847.16;129745;1274;108756;-74
2022/03/08 13:16:31;;;;;;;9.70;5.70;;;;;;;5.00;61.68;100841.35;129719;1274;107713;-71
2022/03/08 13:19:40;;;;;;;13.70;6.60;;;;;;;5.11;61.93;100847.68;129691;1274;108656;-71
2022/03/08 13:22:48;;;;;;;13.50;7.90;;;;;;;5.12;61.74;100848.10;129727;1274;108967;-72
2022/03/08 13:25:56;;;;;;;16.40;14.00;;;;;;;5.14;61.40;100854.55;129680;1274;108727;-71
2022/03/08 13:29:03;;;;;;;7.70;5.10;;;;;;;5.14;59.90;100854.73;129741;1274;108613;-73
2022/03/08 13:32:10;;;;;;;6.70;5.00;;;;;;;5.06;60.54;100853.64;129722;1274;108761;-72
2022/03/08 13:35:18;;;;;;;36.40;13.40;;;;;;;5.10;60.67;100854.08;129690;1274;108657;-73
2022/03/08 13:38:25;;;;;;;8.10;4.70;;;;;;;5.15;59.77;100860.27;129679;1274;106955;-72
2022/03/08 13:41:31;;;;;;;12.70;8.70;;;;;;;5.15;60.40;100861.19;129734;1274;108653;-71
2022/03/08 13:44:37;;;;;;;13.50;9.70;;;;;;;5.20;60.59;100860.65;129697;1274;108897;-72
2022/03/08 13:47:42;;;;;;;7.10;4.90;;;;;;;5.28;60.92;100862.75;129732;1274;107871;-73
2022/03/08 13:50:50;;;;;;;12.60;8.40;;;;;;;5.36;60.36;100865.41;129729;1274;108928;-72
2022/03/08 13:53:57;;;;;;;8.30;5.60;;;;;;;5.45;60.60;100861.96;129827;1274;108930;-73
2022/03/08 13:57:07;;;;;;;6.40;4.30;;;;;;;5.59;60.26;100864.69;129850;1274;107473;-73
2022/03/08 14:00:14;;;;;;;6.90;4.10;;;;;;;5.60;60.03;100860.78;129770;1274;108839;-74